Terminal Aerodrome Forecast
Issued by NWS

Current Version | Previous Version | Graphics & Text | Print | Product List | Glossary On
Versions: 1 2 3 4 5 6 7 8 9 10 11 12 13
000
FTUS41 KRNK 211721
TAFLWB
TAF
KLWB 211721Z 2118/2218 20006KT P6SM SCT250
     FM220700 VRB03KT P6SM SCT050 BKN120
     FM221300 00000KT 6SM -SHRA SCT035 OVC090
     FM221600 24007KT P6SM -SHRA BKN030 BKN060=

USA.gov is the U.S. government's official web portal to all federal, state and local government web resources and services.